sensor_id;sensor_type;location;lat;lon;timestamp;temperature;humidity
55642;DHT22;41509;53.108;6.100;2023-06-04T00:02:16;12.30;99.90
55642;DHT22;41509;53.108;6.100;2023-06-04T00:04:42;12.30;99.90
55642;DHT22;41509;53.108;6.100;2023-06-04T00:07:07;12.30;99.90
55642;DHT22;41509;53.108;6.100;2023-06-04T00:09:33;12.20;99.90
55642;DHT22;41509;53.108;6.100;2023-06-04T00:11:59;12.20;99.90
55642;DHT22;41509;53.108;6.100;2023-06-04T00:14:24;12.20;99.90
55642;DHT22;41509;53.108;6.100;2023-06-04T00:16:50;12.20;99.90
55642;DHT22;41509;53.108;6.100;2023-06-04T00:19:16;12.10;99.90
55642;DHT22;41509;53.108;6.100;2023-06-04T00:21:41;12.10;99.90
55642;DHT22;41509;53.108;6.100;2023-06-04T00:24:07;12.10;99.90
55642;DHT22;41509;53.108;6.100;2023-06-04T00:26:33;12.10;99.90
55642;DHT22;41509;53.108;6.100;2023-06-04T00:29:00;12.00;99.90
55642;DHT22;41509;53.108;6.100;2023-06-04T00:31:25;12.00;99.90
55642;DHT22;41509;53.108;6.100;2023-06-04T00:33:51;12.00;99.90
55642;DHT22;41509;53.108;6.100;2023-06-04T00:36:17;12.00;99.90
55642;DHT22;41509;53.108;6.100;2023-06-04T00:38:43;11.90;99.90
55642;DHT22;41509;53.108;6.100;2023-06-04T00:41:08;11.90;99.90
55642;DHT22;41509;53.108;6.100;2023-06-04T00:43:35;11.90;99.90
55642;DHT22;41509;53.108;6.100;2023-06-04T00:46:01;11.80;99.90
55642;DHT22;41509;53.108;6.100;2023-06-04T00:48:28;11.80;99.90
55642;DHT22;41509;53.108;6.100;2023-06-04T00:50:56;11.80;99.90
55642;DHT22;41509;53.108;6.100;2023-06-04T00:53:23;11.70;99.90
55642;DHT22;41509;53.108;6.100;2023-06-04T00:55:50;11.70;99.90
55642;DHT22;41509;53.108;6.100;2023-06-04T00:58:16;11.70;99.90
55642;DHT22;41509;53.108;6.100;2023-06-04T01:00:45;11.70;99.90
55642;DHT22;41509;53.108;6.100;2023-06-04T01:03:14;11.60;99.90
55642;DHT22;41509;53.108;6.100;2023-06-04T01:06:00;11.60;99.90
55642;DHT22;41509;53.108;6.100;2023-06-04T01:08:28;11.60;99.90
55642;DHT22;41509;53.108;6.100;2023-06-04T01:10:55;11.60;99.90
55642;DHT22;41509;53.108;6.100;2023-06-04T01:13:21;11.60;99.90
55642;DHT22;41509;53.108;6.100;2023-06-04T01:15:47;11.60;99.90
55642;DHT22;41509;53.108;6.100;2023-06-04T01:18:20;11.60;99.90
55642;DHT22;41509;53.108;6.100;2023-06-04T01:21:07;11.50;99.90
55642;DHT22;41509;53.108;6.100;2023-06-04T01:23:45;11.50;99.90
55642;DHT22;41509;53.108;6.100;2023-06-04T01:26:11;11.40;99.90
55642;DHT22;41509;53.108;6.100;2023-06-04T01:28:38;11.40;99.90
55642;DHT22;41509;53.108;6.100;2023-06-04T01:31:04;11.40;99.90
55642;DHT22;41509;53.108;6.100;2023-06-04T01:33:33;11.40;99.90
55642;DHT22;41509;53.108;6.100;2023-06-04T01:35:59;11.30;99.90
55642;DHT22;41509;53.108;6.100;2023-06-04T01:38:26;11.30;99.90
55642;DHT22;41509;53.108;6.100;2023-06-04T01:40:52;11.30;99.90
55642;DHT22;41509;53.108;6.100;2023-06-04T01:43:22;11.30;99.90
55642;DHT22;41509;53.108;6.100;2023-06-04T01:45:47;11.20;99.90
55642;DHT22;41509;53.108;6.100;2023-06-04T01:48:13;11.20;99.90
55642;DHT22;41509;53.108;6.100;2023-06-04T01:50:39;11.20;99.90
55642;DHT22;41509;53.108;6.100;2023-06-04T01:53:05;11.10;99.90
55642;DHT22;41509;53.108;6.100;2023-06-04T01:55:31;11.20;99.90
55642;DHT22;41509;53.108;6.100;2023-06-04T01:57:59;11.20;99.90
55642;DHT22;41509;53.108;6.100;2023-06-04T02:00:26;11.20;99.90
55642;DHT22;41509;53.108;6.100;2023-06-04T02:02:52;11.10;99.90
55642;DHT22;41509;53.108;6.100;2023-06-04T02:05:18;11.10;99.90
55642;DHT22;41509;53.108;6.100;2023-06-04T02:07:45;11.10;99.90
55642;DHT22;41509;53.108;6.100;2023-06-04T02:10:15;11.10;99.90
55642;DHT22;41509;53.108;6.100;2023-06-04T02:12:53;11.10;99.90
55642;DHT22;41509;53.108;6.100;2023-06-04T02:15:19;11.10;99.90
55642;DHT22;41509;53.108;6.100;2023-06-04T02:17:45;11.10;99.90
55642;DHT22;41509;53.108;6.100;2023-06-04T02:20:11;11.00;99.90
55642;DHT22;41509;53.108;6.100;2023-06-04T02:22:40;11.00;99.90
55642;DHT22;41509;53.108;6.100;2023-06-04T02:25:06;11.00;99.90
55642;DHT22;41509;53.108;6.100;2023-06-04T02:27:34;11.00;99.90
55642;DHT22;41509;53.108;6.100;2023-06-04T02:30:00;11.00;99.90
55642;DHT22;41509;53.108;6.100;2023-06-04T02:32:25;11.00;99.90
55642;DHT22;41509;53.108;6.100;2023-06-04T02:34:51;11.00;99.90
55642;DHT22;41509;53.108;6.100;2023-06-04T02:37:17;11.00;99.90
55642;DHT22;41509;53.108;6.100;2023-06-04T02:39:43;11.00;99.90
55642;DHT22;41509;53.108;6.100;2023-06-04T02:42:08;11.00;99.90
55642;DHT22;41509;53.108;6.100;2023-06-04T02:44:34;11.00;99.90
55642;DHT22;41509;53.108;6.100;2023-06-04T02:46:59;11.00;99.90
55642;DHT22;41509;53.108;6.100;2023-06-04T02:49:25;10.90;99.90
55642;DHT22;41509;53.108;6.100;2023-06-04T02:51:51;10.90;99.90
55642;DHT22;41509;53.108;6.100;2023-06-04T02:54:16;10.90;99.90
55642;DHT22;41509;53.108;6.100;2023-06-04T02:56:42;10.90;99.90
55642;DHT22;41509;53.108;6.100;2023-06-04T02:59:09;10.90;99.90
55642;DHT22;41509;53.108;6.100;2023-06-04T03:01:35;10.90;99.90
55642;DHT22;41509;53.108;6.100;2023-06-04T03:04:01;10.90;99.90
55642;DHT22;41509;53.108;6.100;2023-06-04T03:06:30;10.90;99.90
55642;DHT22;41509;53.108;6.100;2023-06-04T03:08:57;10.80;99.90
55642;DHT22;41509;53.108;6.100;2023-06-04T03:11:23;10.80;99.90
55642;DHT22;41509;53.108;6.100;2023-06-04T03:13:49;10.90;99.90
55642;DHT22;41509;53.108;6.100;2023-06-04T03:16:17;10.90;99.90
55642;DHT22;41509;53.108;6.100;2023-06-04T03:18:43;10.80;99.90
55642;DHT22;41509;53.108;6.100;2023-06-04T03:21:09;10.80;99.90
55642;DHT22;41509;53.108;6.100;2023-06-04T03:23:36;10.80;99.90
55642;DHT22;41509;53.108;6.100;2023-06-04T03:26:02;10.80;99.90
55642;DHT22;41509;53.108;6.100;2023-06-04T03:28:28;10.80;99.90
55642;DHT22;41509;53.108;6.100;2023-06-04T03:30:54;10.80;99.90
55642;DHT22;41509;53.108;6.100;2023-06-04T03:33:20;10.80;99.90
55642;DHT22;41509;53.108;6.100;2023-06-04T03:35:45;10.80;99.90
55642;DHT22;41509;53.108;6.100;2023-06-04T03:38:13;10.80;99.90
55642;DHT22;41509;53.108;6.100;2023-06-04T03:40:39;10.80;99.90
55642;DHT22;41509;53.108;6.100;2023-06-04T03:43:04;10.80;99.90
55642;DHT22;41509;53.108;6.100;2023-06-04T03:45:30;10.80;99.90
55642;DHT22;41509;53.108;6.100;2023-06-04T03:47:56;10.80;99.90
55642;DHT22;41509;53.108;6.100;2023-06-04T03:50:22;10.70;99.90
55642;DHT22;41509;53.108;6.100;2023-06-04T03:52:48;10.70;99.90
55642;DHT22;41509;53.108;6.100;2023-06-04T03:55:14;10.70;99.90
55642;DHT22;41509;53.108;6.100;2023-06-04T03:57:40;10.70;99.90
55642;DHT22;41509;53.108;6.100;2023-06-04T04:00:07;10.70;99.90
55642;DHT22;41509;53.108;6.100;2023-06-04T04:02:37;10.70;99.90
55642;DHT22;41509;53.108;6.100;2023-06-04T04:05:03;10.80;99.90
55642;DHT22;41509;53.108;6.100;2023-06-04T04:07:28;10.80;99.90
55642;DHT22;41509;53.108;6.100;2023-06-04T04:09:54;10.70;99.90
55642;DHT22;41509;53.108;6.100;2023-06-04T04:12:20;10.70;99.90
55642;DHT22;41509;53.108;6.100;2023-06-04T04:14:45;10.80;99.90
55642;DHT22;41509;53.108;6.100;2023-06-04T04:17:13;10.80;99.90
55642;DHT22;41509;53.108;6.100;2023-06-04T04:19:39;10.80;99.90
55642;DHT22;41509;53.108;6.100;2023-06-04T04:22:04;10.80;99.90
55642;DHT22;41509;53.108;6.100;2023-06-04T04:24:30;10.90;99.90
55642;DHT22;41509;53.108;6.100;2023-06-04T04:26:57;10.90;99.90
55642;DHT22;41509;53.108;6.100;2023-06-04T04:29:24;10.90;99.90
55642;DHT22;41509;53.108;6.100;2023-06-04T04:31:51;10.90;99.90
55642;DHT22;41509;53.108;6.100;2023-06-04T04:34:17;11.00;99.90
55642;DHT22;41509;53.108;6.100;2023-06-04T04:36:43;11.00;99.90
55642;DHT22;41509;53.108;6.100;2023-06-04T04:39:09;11.00;99.90
55642;DHT22;41509;53.108;6.100;2023-06-04T04:41:37;11.10;99.90
55642;DHT22;41509;53.108;6.100;2023-06-04T04:44:04;11.10;99.90
55642;DHT22;41509;53.108;6.100;2023-06-04T04:46:32;11.20;99.90
55642;DHT22;41509;53.108;6.100;2023-06-04T04:48:58;11.20;99.90
55642;DHT22;41509;53.108;6.100;2023-06-04T04:51:25;11.30;99.90
55642;DHT22;41509;53.108;6.100;2023-06-04T04:53:50;11.30;99.90
55642;DHT22;41509;53.108;6.100;2023-06-04T04:56:16;11.30;99.90
55642;DHT22;41509;53.108;6.100;2023-06-04T04:58:41;11.40;99.90
55642;DHT22;41509;53.108;6.100;2023-06-04T05:01:07;11.50;99.90
55642;DHT22;41509;53.108;6.100;2023-06-04T05:03:33;11.40;99.90
55642;DHT22;41509;53.108;6.100;2023-06-04T05:05:58;11.50;99.90
55642;DHT22;41509;53.108;6.100;2023-06-04T05:08:24;11.60;99.90
55642;DHT22;41509;53.108;6.100;2023-06-04T05:10:50;11.60;99.90
55642;DHT22;41509;53.108;6.100;2023-06-04T05:13:16;11.60;99.90
55642;DHT22;41509;53.108;6.100;2023-06-04T05:15:43;11.70;99.90
55642;DHT22;41509;53.108;6.100;2023-06-04T05:18:08;11.80;99.90
55642;DHT22;41509;53.108;6.100;2023-06-04T05:20:34;11.80;99.90
55642;DHT22;41509;53.108;6.100;2023-06-04T05:23:03;11.90;99.90
55642;DHT22;41509;53.108;6.100;2023-06-04T05:25:29;12.00;99.90
55642;DHT22;41509;53.108;6.100;2023-06-04T05:27:56;12.00;99.90
55642;DHT22;41509;53.108;6.100;2023-06-04T05:30:22;12.10;99.90
55642;DHT22;41509;53.108;6.100;2023-06-04T05:32:48;12.10;99.90
55642;DHT22;41509;53.108;6.100;2023-06-04T05:35:16;12.20;99.90
55642;DHT22;41509;53.108;6.100;2023-06-04T05:37:42;12.30;99.90
55642;DHT22;41509;53.108;6.100;2023-06-04T05:40:11;12.40;99.90
55642;DHT22;41509;53.108;6.100;2023-06-04T05:42:37;12.40;99.90
55642;DHT22;41509;53.108;6.100;2023-06-04T05:45:03;12.60;99.90
55642;DHT22;41509;53.108;6.100;2023-06-04T05:47:29;12.60;99.90
55642;DHT22;41509;53.108;6.100;2023-06-04T05:49:55;12.60;99.90
55642;DHT22;41509;53.108;6.100;2023-06-04T05:52:21;12.70;99.90
55642;DHT22;41509;53.108;6.100;2023-06-04T05:54:46;12.80;99.90
55642;DHT22;41509;53.108;6.100;2023-06-04T05:57:12;12.90;99.90
55642;DHT22;41509;53.108;6.100;2023-06-04T05:59:38;12.90;99.90
55642;DHT22;41509;53.108;6.100;2023-06-04T06:02:03;13.00;99.90
55642;DHT22;41509;53.108;6.100;2023-06-04T06:04:29;13.10;99.90
55642;DHT22;41509;53.108;6.100;2023-06-04T06:06:55;13.10;99.90
55642;DHT22;41509;53.108;6.100;2023-06-04T06:09:21;13.20;99.90
55642;DHT22;41509;53.108;6.100;2023-06-04T06:11:47;13.30;99.90
55642;DHT22;41509;53.108;6.100;2023-06-04T06:14:12;13.40;99.90
55642;DHT22;41509;53.108;6.100;2023-06-04T06:16:38;13.40;99.90
55642;DHT22;41509;53.108;6.100;2023-06-04T06:19:04;13.50;99.90
55642;DHT22;41509;53.108;6.100;2023-06-04T06:21:30;13.60;99.90
55642;DHT22;41509;53.108;6.100;2023-06-04T06:23:55;13.70;99.90
55642;DHT22;41509;53.108;6.100;2023-06-04T06:26:21;13.70;99.90
55642;DHT22;41509;53.108;6.100;2023-06-04T06:28:48;13.80;99.90
55642;DHT22;41509;53.108;6.100;2023-06-04T06:31:14;13.80;99.90
55642;DHT22;41509;53.108;6.100;2023-06-04T06:33:40;13.90;99.90
55642;DHT22;41509;53.108;6.100;2023-06-04T06:36:15;13.90;99.90
55642;DHT22;41509;53.108;6.100;2023-06-04T06:38:44;14.10;99.90
55642;DHT22;41509;53.108;6.100;2023-06-04T06:41:10;14.10;99.90
55642;DHT22;41509;53.108;6.100;2023-06-04T06:43:36;14.20;99.90
55642;DHT22;41509;53.108;6.100;2023-06-04T06:46:02;14.20;99.90
55642;DHT22;41509;53.108;6.100;2023-06-04T06:48:27;14.20;99.90
55642;DHT22;41509;53.108;6.100;2023-06-04T06:50:54;14.30;99.90
55642;DHT22;41509;53.108;6.100;2023-06-04T06:53:19;14.40;99.90
55642;DHT22;41509;53.108;6.100;2023-06-04T06:55:45;14.50;99.90
55642;DHT22;41509;53.108;6.100;2023-06-04T06:58:11;14.50;99.90
55642;DHT22;41509;53.108;6.100;2023-06-04T07:03:06;14.70;99.90
55642;DHT22;41509;53.108;6.100;2023-06-04T07:05:33;14.70;99.90
55642;DHT22;41509;53.108;6.100;2023-06-04T07:07:59;14.80;99.90
55642;DHT22;41509;53.108;6.100;2023-06-04T07:10:26;14.80;99.90
55642;DHT22;41509;53.108;6.100;2023-06-04T07:12:52;14.90;99.90
55642;DHT22;41509;53.108;6.100;2023-06-04T07:15:18;14.90;99.90
55642;DHT22;41509;53.108;6.100;2023-06-04T07:17:44;15.00;99.90
55642;DHT22;41509;53.108;6.100;2023-06-04T07:20:10;15.00;99.90
55642;DHT22;41509;53.108;6.100;2023-06-04T07:22:35;15.10;99.90
55642;DHT22;41509;53.108;6.100;2023-06-04T07:25:01;15.20;99.90
55642;DHT22;41509;53.108;6.100;2023-06-04T07:27:27;15.20;99.90
55642;DHT22;41509;53.108;6.100;2023-06-04T07:29:53;15.30;99.90
55642;DHT22;41509;53.108;6.100;2023-06-04T07:32:19;15.40;99.90
55642;DHT22;41509;53.108;6.100;2023-06-04T07:34:44;15.40;99.90
55642;DHT22;41509;53.108;6.100;2023-06-04T07:37:10;15.50;99.90
55642;DHT22;41509;53.108;6.100;2023-06-04T07:39:36;15.50;99.90
55642;DHT22;41509;53.108;6.100;2023-06-04T07:42:03;15.60;99.90
55642;DHT22;41509;53.108;6.100;2023-06-04T07:44:29;15.70;99.90
55642;DHT22;41509;53.108;6.100;2023-06-04T07:46:55;15.70;99.90
55642;DHT22;41509;53.108;6.100;2023-06-04T07:49:21;15.80;99.90
55642;DHT22;41509;53.108;6.100;2023-06-04T07:51:46;15.80;99.90
55642;DHT22;41509;53.108;6.100;2023-06-04T07:54:12;15.90;99.90
55642;DHT22;41509;53.108;6.100;2023-06-04T07:56:39;16.00;99.90
55642;DHT22;41509;53.108;6.100;2023-06-04T07:59:05;16.00;99.90
55642;DHT22;41509;53.108;6.100;2023-06-04T08:01:31;16.10;99.90
55642;DHT22;41509;53.108;6.100;2023-06-04T08:03:57;16.20;99.90
55642;DHT22;41509;53.108;6.100;2023-06-04T08:06:24;16.30;99.90
55642;DHT22;41509;53.108;6.100;2023-06-04T08:08:52;16.30;99.90
55642;DHT22;41509;53.108;6.100;2023-06-04T08:11:18;16.40;99.90
55642;DHT22;41509;53.108;6.100;2023-06-04T08:13:43;16.50;99.90
55642;DHT22;41509;53.108;6.100;2023-06-04T08:16:09;16.50;99.90
55642;DHT22;41509;53.108;6.100;2023-06-04T08:18:41;16.60;99.90
55642;DHT22;41509;53.108;6.100;2023-06-04T08:21:11;16.70;99.90
55642;DHT22;41509;53.108;6.100;2023-06-04T08:23:37;16.70;99.90
55642;DHT22;41509;53.108;6.100;2023-06-04T08:26:03;16.80;99.90
55642;DHT22;41509;53.108;6.100;2023-06-04T08:28:28;16.80;99.90
55642;DHT22;41509;53.108;6.100;2023-06-04T08:30:54;16.90;99.90
55642;DHT22;41509;53.108;6.100;2023-06-04T08:33:20;17.00;99.90
55642;DHT22;41509;53.108;6.100;2023-06-04T08:35:46;17.10;99.90
55642;DHT22;41509;53.108;6.100;2023-06-04T08:38:11;17.20;99.90
55642;DHT22;41509;53.108;6.100;2023-06-04T08:40:37;17.30;99.90
55642;DHT22;41509;53.108;6.100;2023-06-04T08:43:04;17.40;99.90
55642;DHT22;41509;53.108;6.100;2023-06-04T08:45:32;17.40;99.90
55642;DHT22;41509;53.108;6.100;2023-06-04T08:47:58;17.40;99.90
55642;DHT22;41509;53.108;6.100;2023-06-04T08:50:25;17.60;99.90
55642;DHT22;41509;53.108;6.100;2023-06-04T08:52:55;17.60;99.90
55642;DHT22;41509;53.108;6.100;2023-06-04T08:55:21;17.70;99.90
55642;DHT22;41509;53.108;6.100;2023-06-04T08:57:52;17.70;99.90
55642;DHT22;41509;53.108;6.100;2023-06-04T09:00:19;17.80;99.90
55642;DHT22;41509;53.108;6.100;2023-06-04T09:02:45;17.80;99.90
55642;DHT22;41509;53.108;6.100;2023-06-04T09:05:19;17.90;99.90
55642;DHT22;41509;53.108;6.100;2023-06-04T09:07:46;18.00;99.90
55642;DHT22;41509;53.108;6.100;2023-06-04T09:10:17;18.00;99.90
55642;DHT22;41509;53.108;6.100;2023-06-04T09:12:46;18.20;99.90
55642;DHT22;41509;53.108;6.100;2023-06-04T09:15:12;18.20;99.90
55642;DHT22;41509;53.108;6.100;2023-06-04T09:17:38;18.30;99.90
55642;DHT22;41509;53.108;6.100;2023-06-04T09:20:04;18.30;99.90
55642;DHT22;41509;53.108;6.100;2023-06-04T09:22:38;18.50;99.90
55642;DHT22;41509;53.108;6.100;2023-06-04T09:25:06;18.60;99.90
55642;DHT22;41509;53.108;6.100;2023-06-04T09:27:39;18.60;99.90
55642;DHT22;41509;53.108;6.100;2023-06-04T09:30:06;18.70;99.90
55642;DHT22;41509;53.108;6.100;2023-06-04T09:32:34;18.70;99.90
55642;DHT22;41509;53.108;6.100;2023-06-04T09:35:14;18.80;99.90
55642;DHT22;41509;53.108;6.100;2023-06-04T09:37:53;18.80;99.90
55642;DHT22;41509;53.108;6.100;2023-06-04T09:40:19;18.90;99.90
55642;DHT22;41509;53.108;6.100;2023-06-04T09:42:47;18.80;99.90
55642;DHT22;41509;53.108;6.100;2023-06-04T09:45:30;18.90;99.90
55642;DHT22;41509;53.108;6.100;2023-06-04T09:47:57;19.00;99.90
55642;DHT22;41509;53.108;6.100;2023-06-04T09:50:26;18.90;99.90
55642;DHT22;41509;53.108;6.100;2023-06-04T09:52:53;19.00;99.90
55642;DHT22;41509;53.108;6.100;2023-06-04T09:55:19;19.10;99.90
55642;DHT22;41509;53.108;6.100;2023-06-04T09:57:49;19.10;99.90
55642;DHT22;41509;53.108;6.100;2023-06-04T10:00:20;19.20;99.90
55642;DHT22;41509;53.108;6.100;2023-06-04T10:02:46;19.20;99.90
55642;DHT22;41509;53.108;6.100;2023-06-04T10:05:13;19.10;99.90
55642;DHT22;41509;53.108;6.100;2023-06-04T10:07:42;19.20;99.90
55642;DHT22;41509;53.108;6.100;2023-06-04T10:10:25;19.40;99.90
55642;DHT22;41509;53.108;6.100;2023-06-04T10:12:57;19.50;99.90
55642;DHT22;41509;53.108;6.100;2023-06-04T10:15:26;19.60;99.90
55642;DHT22;41509;53.108;6.100;2023-06-04T10:17:52;19.60;99.90
55642;DHT22;41509;53.108;6.100;2023-06-04T10:20:20;19.70;99.90
55642;DHT22;41509;53.108;6.100;2023-06-04T10:22:48;19.80;99.90
55642;DHT22;41509;53.108;6.100;2023-06-04T10:25:15;20.00;99.90
55642;DHT22;41509;53.108;6.100;2023-06-04T10:27:41;20.00;99.90
55642;DHT22;41509;53.108;6.100;2023-06-04T10:30:07;20.00;99.90
55642;DHT22;41509;53.108;6.100;2023-06-04T10:32:34;20.00;99.90
55642;DHT22;41509;53.108;6.100;2023-06-04T10:35:04;20.00;99.90
55642;DHT22;41509;53.108;6.100;2023-06-04T10:37:30;20.10;99.90
55642;DHT22;41509;53.108;6.100;2023-06-04T10:39:56;20.20;99.90
55642;DHT22;41509;53.108;6.100;2023-06-04T10:42:26;20.20;99.90
55642;DHT22;41509;53.108;6.100;2023-06-04T10:44:52;20.10;99.90
55642;DHT22;41509;53.108;6.100;2023-06-04T10:47:22;20.10;99.90
55642;DHT22;41509;53.108;6.100;2023-06-04T10:49:49;20.10;99.90
55642;DHT22;41509;53.108;6.100;2023-06-04T10:52:15;20.20;99.90
55642;DHT22;41509;53.108;6.100;2023-06-04T10:54:42;20.30;99.90
55642;DHT22;41509;53.108;6.100;2023-06-04T10:57:13;20.40;99.90
55642;DHT22;41509;53.108;6.100;2023-06-04T10:59:41;20.40;99.90
55642;DHT22;41509;53.108;6.100;2023-06-04T11:02:08;20.50;99.90
55642;DHT22;41509;53.108;6.100;2023-06-04T11:04:34;20.60;99.90
55642;DHT22;41509;53.108;6.100;2023-06-04T11:07:07;20.70;99.90
55642;DHT22;41509;53.108;6.100;2023-06-04T11:09:54;20.60;99.90
55642;DHT22;41509;53.108;6.100;2023-06-04T11:12:20;20.70;99.90
55642;DHT22;41509;53.108;6.100;2023-06-04T11:14:56;20.70;99.90
55642;DHT22;41509;53.108;6.100;2023-06-04T11:17:22;20.90;99.90
55642;DHT22;41509;53.108;6.100;2023-06-04T11:19:48;21.00;99.90
55642;DHT22;41509;53.108;6.100;2023-06-04T11:22:14;21.10;99.90
55642;DHT22;41509;53.108;6.100;2023-06-04T11:24:40;21.10;99.90
55642;DHT22;41509;53.108;6.100;2023-06-04T11:27:06;21.10;99.90
55642;DHT22;41509;53.108;6.100;2023-06-04T11:29:32;21.20;99.90
55642;DHT22;41509;53.108;6.100;2023-06-04T11:31:58;21.20;99.90
55642;DHT22;41509;53.108;6.100;2023-06-04T11:34:27;21.20;99.90
55642;DHT22;41509;53.108;6.100;2023-06-04T11:36:54;21.20;99.90
55642;DHT22;41509;53.108;6.100;2023-06-04T11:39:34;21.30;99.60
55642;DHT22;41509;53.108;6.100;2023-06-04T11:42:19;21.30;99.20
55642;DHT22;41509;53.108;6.100;2023-06-04T11:44:46;21.30;97.50
55642;DHT22;41509;53.108;6.100;2023-06-04T11:47:15;21.20;97.70
55642;DHT22;41509;53.108;6.100;2023-06-04T11:49:41;21.20;97.70
55642;DHT22;41509;53.108;6.100;2023-06-04T11:52:09;21.30;97.80
55642;DHT22;41509;53.108;6.100;2023-06-04T11:54:35;21.30;98.20
55642;DHT22;41509;53.108;6.100;2023-06-04T11:57:11;21.40;98.80
55642;DHT22;41509;53.108;6.100;2023-06-04T11:59:36;21.60;98.40
55642;DHT22;41509;53.108;6.100;2023-06-04T12:02:02;21.70;97.90
55642;DHT22;41509;53.108;6.100;2023-06-04T12:07:09;21.70;96.50
55642;DHT22;41509;53.108;6.100;2023-06-04T12:09:37;21.70;95.80
55642;DHT22;41509;53.108;6.100;2023-06-04T12:12:08;21.70;95.80
55642;DHT22;41509;53.108;6.100;2023-06-04T12:14:34;21.70;95.70
55642;DHT22;41509;53.108;6.100;2023-06-04T12:17:08;21.70;95.60
55642;DHT22;41509;53.108;6.100;2023-06-04T12:19:47;21.80;95.20
55642;DHT22;41509;53.108;6.100;2023-06-04T12:22:16;21.80;95.30
55642;DHT22;41509;53.108;6.100;2023-06-04T12:27:13;21.90;95.00
55642;DHT22;41509;53.108;6.100;2023-06-04T12:29:39;22.00;95.10
55642;DHT22;41509;53.108;6.100;2023-06-04T12:32:09;22.00;95.90
55642;DHT22;41509;53.108;6.100;2023-06-04T12:34:40;22.00;94.50
55642;DHT22;41509;53.108;6.100;2023-06-04T12:37:06;22.00;94.60
55642;DHT22;41509;53.108;6.100;2023-06-04T12:39:36;22.00;95.40
55642;DHT22;41509;53.108;6.100;2023-06-04T12:42:07;22.10;94.80
55642;DHT22;41509;53.108;6.100;2023-06-04T12:44:39;22.10;93.80
55642;DHT22;41509;53.108;6.100;2023-06-04T12:47:06;22.10;92.60
55642;DHT22;41509;53.108;6.100;2023-06-04T12:49:31;22.00;92.40
55642;DHT22;41509;53.108;6.100;2023-06-04T12:51:57;22.00;92.00
55642;DHT22;41509;53.108;6.100;2023-06-04T12:54:25;21.90;92.40
55642;DHT22;41509;53.108;6.100;2023-06-04T12:56:55;21.80;92.40
55642;DHT22;41509;53.108;6.100;2023-06-04T12:59:24;21.90;93.10
55642;DHT22;41509;53.108;6.100;2023-06-04T13:01:51;22.00;92.90
55642;DHT22;41509;53.108;6.100;2023-06-04T13:04:17;22.10;92.90
55642;DHT22;41509;53.108;6.100;2023-06-04T13:06:42;22.20;93.50
55642;DHT22;41509;53.108;6.100;2023-06-04T13:09:08;22.30;92.50
55642;DHT22;41509;53.108;6.100;2023-06-04T13:11:37;22.20;93.30
55642;DHT22;41509;53.108;6.100;2023-06-04T13:14:03;22.30;92.50
55642;DHT22;41509;53.108;6.100;2023-06-04T13:16:29;22.20;92.40
55642;DHT22;41509;53.108;6.100;2023-06-04T13:18:54;22.20;92.10
55642;DHT22;41509;53.108;6.100;2023-06-04T13:21:20;22.10;92.40
55642;DHT22;41509;53.108;6.100;2023-06-04T13:23:45;22.10;91.90
55642;DHT22;41509;53.108;6.100;2023-06-04T13:26:11;22.10;91.80
55642;DHT22;41509;53.108;6.100;2023-06-04T13:28:37;22.10;91.60
55642;DHT22;41509;53.108;6.100;2023-06-04T13:31:02;22.00;91.50
55642;DHT22;41509;53.108;6.100;2023-06-04T13:33:28;22.10;91.80
55642;DHT22;41509;53.108;6.100;2023-06-04T13:35:54;22.10;91.10
55642;DHT22;41509;53.108;6.100;2023-06-04T13:38:20;22.10;91.20
55642;DHT22;41509;53.108;6.100;2023-06-04T13:40:45;22.10;91.70
55642;DHT22;41509;53.108;6.100;2023-06-04T13:43:11;22.10;91.00
55642;DHT22;41509;53.108;6.100;2023-06-04T13:45:36;22.10;90.60
55642;DHT22;41509;53.108;6.100;2023-06-04T13:48:02;21.90;90.30
55642;DHT22;41509;53.108;6.100;2023-06-04T13:50:32;21.90;90.60
55642;DHT22;41509;53.108;6.100;2023-06-04T13:52:58;21.90;90.60
55642;DHT22;41509;53.108;6.100;2023-06-04T13:55:24;22.00;91.20
55642;DHT22;41509;53.108;6.100;2023-06-04T13:57:49;22.10;91.20
55642;DHT22;41509;53.108;6.100;2023-06-04T14:00:15;22.10;90.70
55642;DHT22;41509;53.108;6.100;2023-06-04T14:02:41;22.20;90.80
55642;DHT22;41509;53.108;6.100;2023-06-04T14:05:06;22.20;91.30
55642;DHT22;41509;53.108;6.100;2023-06-04T14:07:32;22.30;91.30
55642;DHT22;41509;53.108;6.100;2023-06-04T14:09:57;22.30;90.00
55642;DHT22;41509;53.108;6.100;2023-06-04T14:12:24;22.30;89.50
55642;DHT22;41509;53.108;6.100;2023-06-04T14:14:50;22.20;88.80
55642;DHT22;41509;53.108;6.100;2023-06-04T14:17:16;22.20;90.00
55642;DHT22;41509;53.108;6.100;2023-06-04T14:19:42;22.30;89.10
55642;DHT22;41509;53.108;6.100;2023-06-04T14:22:09;22.30;89.40
55642;DHT22;41509;53.108;6.100;2023-06-04T14:24:35;22.30;89.00
55642;DHT22;41509;53.108;6.100;2023-06-04T14:27:02;22.20;89.00
55642;DHT22;41509;53.108;6.100;2023-06-04T14:29:28;22.20;89.30
55642;DHT22;41509;53.108;6.100;2023-06-04T14:31:56;22.30;87.30
55642;DHT22;41509;53.108;6.100;2023-06-04T14:34:24;22.30;89.10
55642;DHT22;41509;53.108;6.100;2023-06-04T14:36:52;22.30;88.80
55642;DHT22;41509;53.108;6.100;2023-06-04T14:39:18;22.30;88.20
55642;DHT22;41509;53.108;6.100;2023-06-04T14:41:44;22.30;87.80
55642;DHT22;41509;53.108;6.100;2023-06-04T14:44:09;22.40;88.50
55642;DHT22;41509;53.108;6.100;2023-06-04T14:46:35;22.30;86.80
55642;DHT22;41509;53.108;6.100;2023-06-04T14:49:01;22.30;87.50
55642;DHT22;41509;53.108;6.100;2023-06-04T14:51:26;22.30;87.40
55642;DHT22;41509;53.108;6.100;2023-06-04T14:53:52;22.20;85.00
55642;DHT22;41509;53.108;6.100;2023-06-04T14:56:17;22.20;87.50
55642;DHT22;41509;53.108;6.100;2023-06-04T14:58:44;22.20;87.30
55642;DHT22;41509;53.108;6.100;2023-06-04T15:01:09;22.20;87.60
55642;DHT22;41509;53.108;6.100;2023-06-04T15:03:38;22.10;87.30
55642;DHT22;41509;53.108;6.100;2023-06-04T15:06:04;22.10;87.40
55642;DHT22;41509;53.108;6.100;2023-06-04T15:08:30;22.10;87.50
55642;DHT22;41509;53.108;6.100;2023-06-04T15:10:56;22.00;86.90
55642;DHT22;41509;53.108;6.100;2023-06-04T15:13:21;21.90;88.40
55642;DHT22;41509;53.108;6.100;2023-06-04T15:15:47;22.00;87.00
55642;DHT22;41509;53.108;6.100;2023-06-04T15:18:12;21.90;88.90
55642;DHT22;41509;53.108;6.100;2023-06-04T15:20:38;22.00;88.90
55642;DHT22;41509;53.108;6.100;2023-06-04T15:23:03;22.10;89.30
55642;DHT22;41509;53.108;6.100;2023-06-04T15:25:29;22.10;89.00
55642;DHT22;41509;53.108;6.100;2023-06-04T15:27:55;22.20;88.80
55642;DHT22;41509;53.108;6.100;2023-06-04T15:30:20;22.20;88.70
55642;DHT22;41509;53.108;6.100;2023-06-04T15:32:46;22.10;88.10
55642;DHT22;41509;53.108;6.100;2023-06-04T15:35:12;22.10;87.70
55642;DHT22;41509;53.108;6.100;2023-06-04T15:37:37;22.00;87.70